createdAt,value
2019-02-19T00:01:20.564Z,98045.05
2019-02-19T00:05:25.443Z,98050.03
2019-02-19T00:09:30.330Z,98038.08
2019-02-19T00:13:35.225Z,98043.72
2019-02-19T00:17:40.133Z,98041.80
2019-02-19T00:21:45.007Z,98040.27
2019-02-19T00:25:49.911Z,98041.66
2019-02-19T00:29:54.800Z,98037.84
2019-02-19T00:33:59.704Z,98037.30
2019-02-19T00:38:06.301Z,98041.23
2019-02-19T00:42:11.359Z,98036.13
2019-02-19T00:46:16.234Z,98051.05
2019-02-19T00:50:21.121Z,98047.48
2019-02-19T00:54:26.006Z,98038.60
2019-02-19T00:58:30.961Z,98036.02
2019-02-19T01:02:35.848Z,98035.50
2019-02-19T01:06:40.736Z,98036.34
2019-02-19T01:10:45.613Z,98041.20
2019-02-19T01:14:50.498Z,98041.92
2019-02-19T01:18:55.387Z,98047.00
2019-02-19T01:23:00.277Z,98040.20
2019-02-19T01:27:06.123Z,98040.38
2019-02-19T01:31:11.020Z,98040.15
2019-02-19T01:35:16.882Z,98034.73
2019-02-19T01:39:21.770Z,98033.11
2019-02-19T01:43:26.655Z,98038.80
2019-02-19T01:47:31.536Z,98038.05
2019-02-19T01:51:36.427Z,98038.73
2019-02-19T01:55:41.331Z,98035.44
2019-02-19T01:59:46.222Z,98034.74
2019-02-19T02:03:51.119Z,98031.41
2019-02-19T02:07:56.004Z,98030.42
2019-02-19T02:12:00.890Z,98032.80
2019-02-19T02:16:05.793Z,98033.30
2019-02-19T02:20:10.686Z,98026.89
2019-02-19T02:24:15.578Z,98027.87
2019-02-19T02:28:20.459Z,98022.81
2019-02-19T02:32:25.353Z,98012.44
2019-02-19T02:36:30.244Z,98017.63
2019-02-19T02:40:35.132Z,98020.78
2019-02-19T02:44:40.024Z,98015.20
2019-02-19T02:48:44.903Z,98012.23
2019-02-19T02:52:49.814Z,98007.97
2019-02-19T02:56:54.699Z,98006.75
2019-02-19T03:00:59.598Z,98008.56
2019-02-19T03:05:05.335Z,98003.50
2019-02-19T03:09:10.202Z,98008.34
2019-02-19T03:13:15.085Z,98001.97
2019-02-19T03:17:19.973Z,98006.74
2019-02-19T03:21:24.858Z,98008.16
2019-02-19T03:25:29.772Z,98015.20
2019-02-19T03:29:34.647Z,98007.61
2019-02-19T03:33:39.545Z,98014.39
2019-02-19T03:37:44.420Z,98019.52
2019-02-19T03:41:49.310Z,98020.37
2019-02-19T03:45:54.195Z,98022.03
2019-02-19T03:49:59.078Z,98025.44
2019-02-19T03:54:03.968Z,98021.53
2019-02-19T03:58:08.861Z,98014.70
2019-02-19T04:02:13.829Z,98014.70
2019-02-19T04:06:18.701Z,98019.45
2019-02-19T04:10:23.609Z,98020.39
2019-02-19T04:14:28.496Z,98022.97
2019-02-19T04:18:33.393Z,98019.03
2019-02-19T04:22:38.295Z,98024.64
2019-02-19T04:26:43.170Z,98024.63
2019-02-19T04:30:48.054Z,98037.08
2019-02-19T04:34:52.988Z,98042.64
2019-02-19T04:38:57.846Z,98046.91
2019-02-19T04:43:02.730Z,98040.44
2019-02-19T04:47:07.606Z,98052.27
2019-02-19T04:51:12.506Z,98046.67
2019-02-19T04:55:17.403Z,98044.88
2019-02-19T04:59:22.299Z,98048.70
2019-02-19T05:03:27.191Z,98053.82
2019-02-19T05:07:32.070Z,98055.41
2019-02-19T05:11:36.958Z,98046.79
2019-02-19T05:15:41.855Z,98048.42
2019-02-19T05:19:46.867Z,98044.84
2019-02-19T05:23:51.730Z,98051.25
2019-02-19T05:27:56.612Z,98045.88
2019-02-19T05:32:01.505Z,98054.78
2019-02-19T05:36:06.399Z,98053.78
2019-02-19T05:40:11.357Z,98052.34
2019-02-19T05:44:16.249Z,98047.52
2019-02-19T05:48:21.127Z,98046.06
2019-02-19T05:52:26.026Z,98052.40
2019-02-19T05:56:30.914Z,98056.98
2019-02-19T06:00:35.809Z,98050.35
2019-02-19T06:04:40.705Z,98046.80
2019-02-19T06:08:45.619Z,98046.95
2019-02-19T06:12:50.507Z,98058.14
2019-02-19T06:16:58.613Z,98065.03
2019-02-19T06:21:01.987Z,98068.58
2019-02-19T06:25:08.721Z,98079.13
2019-02-19T06:29:13.602Z,98086.47
2019-02-19T06:33:18.495Z,98079.14
2019-02-19T06:37:23.392Z,98083.38
2019-02-19T06:41:28.292Z,98090.83
2019-02-19T06:45:33.192Z,98102.70
2019-02-19T06:49:38.069Z,98111.48
2019-02-19T06:53:42.965Z,98115.64
2019-02-19T06:57:47.867Z,98127.97
2019-02-19T07:01:57.069Z,98135.92
2019-02-19T07:06:01.967Z,98139.98
2019-02-19T07:10:07.289Z,98144.72
2019-02-19T07:14:12.191Z,98148.28
2019-02-19T07:18:17.086Z,98161.86
2019-02-19T07:22:21.970Z,98155.75
2019-02-19T07:26:26.860Z,98160.59
2019-02-19T07:30:31.747Z,98161.17
2019-02-19T07:34:36.639Z,98173.67
2019-02-19T07:38:41.542Z,98175.92
2019-02-19T07:42:46.455Z,98186.09
2019-02-19T07:46:51.342Z,98191.97
2019-02-19T07:50:56.234Z,98193.13
2019-02-19T07:55:01.140Z,98202.63
2019-02-19T07:59:06.041Z,98204.44
2019-02-19T08:03:10.931Z,98212.25
2019-02-19T08:07:15.842Z,98223.13
2019-02-19T08:11:20.722Z,98223.15
2019-02-19T08:15:25.633Z,98230.08
2019-02-19T08:19:30.531Z,98236.18
2019-02-19T08:23:35.431Z,98245.63
2019-02-19T08:27:40.339Z,98252.48
2019-02-19T08:31:45.226Z,98255.50
2019-02-19T08:35:50.110Z,98257.31
2019-02-19T08:39:55.836Z,98264.68
2019-02-19T08:44:00.744Z,98260.25
2019-02-19T08:48:05.639Z,98262.35
2019-02-19T08:52:10.530Z,98252.59
2019-02-19T08:56:15.420Z,98253.66
2019-02-19T09:00:20.344Z,98257.22
2019-02-19T09:04:25.228Z,98260.81
2019-02-19T09:08:30.128Z,98267.94
2019-02-19T09:12:35.018Z,98273.06
2019-02-19T09:16:39.914Z,98266.57
2019-02-19T09:20:44.806Z,98266.95
2019-02-19T09:24:49.725Z,98268.16
2019-02-19T09:28:54.637Z,98271.09
2019-02-19T09:32:59.551Z,98266.49
2019-02-19T09:37:04.443Z,98276.60
2019-02-19T09:41:09.344Z,98269.70
2019-02-19T09:45:14.515Z,98264.73
2019-02-19T09:49:19.415Z,98265.25
2019-02-19T09:53:24.312Z,98273.09
2019-02-19T09:57:29.195Z,98271.10
2019-02-19T10:01:34.166Z,98262.09
2019-02-19T10:05:39.056Z,98270.82
2019-02-19T10:09:43.959Z,98278.45
2019-02-19T10:13:48.951Z,98286.02
2019-02-19T10:17:53.824Z,98295.45
2019-02-19T10:21:58.714Z,98296.06
2019-02-19T10:26:03.607Z,98300.94
2019-02-19T10:30:14.183Z,98308.20
2019-02-19T10:34:19.082Z,98303.53
2019-02-19T10:38:23.968Z,98302.45
2019-02-19T10:42:28.877Z,98301.31
2019-02-19T10:46:33.792Z,98311.76
2019-02-19T10:50:38.688Z,98318.22
2019-02-19T10:54:43.571Z,98312.90
2019-02-19T10:58:48.473Z,98327.58
2019-02-19T11:02:53.383Z,98333.17
2019-02-19T11:06:58.285Z,98331.63
2019-02-19T11:11:03.182Z,98326.81
2019-02-19T11:15:10.524Z,98328.97
2019-02-19T11:19:15.433Z,98317.19
2019-02-19T11:23:20.344Z,98322.34
2019-02-19T11:27:25.245Z,98312.99
2019-02-19T11:31:31.121Z,98313.75
2019-02-19T11:35:36.023Z,98314.77
2019-02-19T11:39:40.915Z,98311.55
2019-02-19T11:43:45.821Z,98308.20
2019-02-19T11:47:50.720Z,98307.38
2019-02-19T11:51:55.628Z,98296.42
2019-02-19T11:56:00.535Z,98298.63
2019-02-19T12:00:12.774Z,98293.77
2019-02-19T12:04:17.675Z,98297.73
2019-02-19T12:08:22.580Z,98296.61
2019-02-19T12:12:27.480Z,98288.77
2019-02-19T12:16:32.388Z,98288.39
2019-02-19T12:20:37.277Z,98285.36
2019-02-19T12:24:43.144Z,98282.77
2019-02-19T12:28:48.047Z,98279.02
2019-02-19T12:32:52.939Z,98286.29
2019-02-19T12:36:57.840Z,98280.23
2019-02-19T12:41:02.750Z,98275.60
2019-02-19T12:45:10.808Z,98274.38
2019-02-19T12:49:16.511Z,98273.32
2019-02-19T12:53:21.388Z,98269.66
2019-02-19T12:57:26.277Z,98260.52
2019-02-19T13:01:31.159Z,98259.73
2019-02-19T13:05:36.066Z,98257.33
2019-02-19T13:09:40.955Z,98248.03
2019-02-19T13:13:45.858Z,98250.13
2019-02-19T13:17:50.756Z,98243.90
2019-02-19T13:21:55.650Z,98244.91
2019-02-19T13:26:00.546Z,98247.87
2019-02-19T13:30:10.521Z,98245.80
2019-02-19T13:34:16.574Z,98241.04
2019-02-19T13:38:21.484Z,98240.19
2019-02-19T13:42:26.372Z,98241.85
2019-02-19T13:46:31.263Z,98235.17
2019-02-19T13:50:36.178Z,98242.67
2019-02-19T13:54:41.956Z,98248.37
2019-02-19T13:58:46.857Z,98256.56
2019-02-19T14:02:51.759Z,98256.25
2019-02-19T14:06:56.646Z,98259.77
2019-02-19T14:11:01.547Z,98264.16
2019-02-19T14:15:11.005Z,98269.53
2019-02-19T14:19:21.339Z,98266.64
2019-02-19T14:23:33.349Z,98268.68
2019-02-19T14:27:39.889Z,98278.67
2019-02-19T14:31:46.425Z,98274.60
2019-02-19T14:35:58.957Z,98282.47
2019-02-19T14:40:11.903Z,98286.84
2019-02-19T14:44:34.597Z,98275.89
2019-02-19T14:48:41.145Z,98278.11
2019-02-19T14:52:59.612Z,98275.67
2019-02-19T14:57:22.619Z,98276.53
2019-02-19T15:01:34.891Z,98273.00
2019-02-19T15:05:56.379Z,98273.95
2019-02-19T15:10:18.059Z,98276.81
2019-02-19T15:14:24.595Z,98273.97
2019-02-19T15:18:34.074Z,98275.19
2019-02-19T15:22:56.474Z,98266.73
2019-02-19T15:27:03.011Z,98275.59
2019-02-19T15:31:24.462Z,98270.61
2019-02-19T15:35:36.884Z,98270.20
2019-02-19T15:39:43.413Z,98276.88
2019-02-19T15:43:49.944Z,98275.52
2019-02-19T15:48:08.493Z,98280.38
2019-02-19T15:52:17.987Z,98275.80
2019-02-19T15:56:40.711Z,98274.05
2019-02-19T16:00:47.293Z,98283.14
2019-02-19T16:04:53.786Z,98283.48
2019-02-19T16:09:06.046Z,98282.04
2019-02-19T16:13:21.524Z,98280.28
2019-02-19T16:17:28.075Z,98280.31
2019-02-19T16:21:44.576Z,98276.62
2019-02-19T16:26:00.088Z,98282.58
2019-02-19T16:30:24.873Z,98280.72
2019-02-19T16:34:34.075Z,98283.12
2019-02-19T16:38:40.610Z,98286.25
2019-02-19T16:43:03.405Z,98288.34
2019-02-19T16:47:09.945Z,98289.22
2019-02-19T16:51:25.516Z,98285.37
2019-02-19T16:55:34.970Z,98290.32
2019-02-19T16:59:44.218Z,98291.69
2019-02-19T17:04:05.788Z,98299.14
2019-02-19T17:08:24.592Z,98299.56
2019-02-19T17:12:47.267Z,98305.69
2019-02-19T17:17:10.260Z,98309.45
2019-02-19T17:21:28.937Z,98316.30
2019-02-19T17:25:41.425Z,98321.39
2019-02-19T17:29:57.138Z,98327.41
2019-02-19T17:34:23.991Z,98326.16
2019-02-19T17:38:39.135Z,98323.32
2019-02-19T17:43:02.059Z,98329.59
2019-02-19T17:47:24.756Z,98337.53
2019-02-19T17:51:36.841Z,98340.25
2019-02-19T17:55:49.353Z,98340.87
2019-02-19T18:00:13.916Z,98342.78
2019-02-19T18:04:20.450Z,98345.15
2019-02-19T18:08:45.261Z,98342.71
2019-02-19T18:12:51.791Z,98350.73
2019-02-19T18:16:58.344Z,98351.73
2019-02-19T18:21:03.281Z,98359.67
2019-02-19T18:25:08.164Z,98363.05
2019-02-19T18:29:13.068Z,98365.09
2019-02-19T18:33:17.971Z,98374.70
2019-02-19T18:37:22.877Z,98379.10
2019-02-19T18:41:27.846Z,98373.61
2019-02-19T18:45:32.741Z,98381.05
2019-02-19T18:49:37.641Z,98380.56
2019-02-19T18:53:42.536Z,98386.55
2019-02-19T18:57:47.429Z,98387.55
2019-02-19T19:01:52.332Z,98392.75
2019-02-19T19:05:57.238Z,98399.16
2019-02-19T19:10:02.140Z,98400.40
2019-02-19T19:14:07.018Z,98407.89
2019-02-19T19:18:11.917Z,98400.23
2019-02-19T19:22:16.804Z,98406.25
2019-02-19T19:26:21.692Z,98408.47
2019-02-19T19:30:26.598Z,98404.27
2019-02-19T19:34:31.481Z,98419.77
2019-02-19T19:38:36.389Z,98420.21
2019-02-19T19:42:41.279Z,98423.33
2019-02-19T19:46:46.183Z,98425.47
2019-02-19T19:50:51.084Z,98430.52
2019-02-19T19:54:55.974Z,98431.61
2019-02-19T19:59:00.861Z,98430.53
2019-02-19T20:03:05.825Z,98436.97
2019-02-19T20:07:10.728Z,98442.17
2019-02-19T20:11:15.643Z,98432.54
2019-02-19T20:15:20.521Z,98433.67
2019-02-19T20:19:25.449Z,98433.05
2019-02-19T20:23:30.341Z,98425.87
2019-02-19T20:27:35.227Z,98433.77
2019-02-19T20:31:40.116Z,98440.77
2019-02-19T20:35:45.024Z,98444.45
2019-02-19T20:39:50.898Z,98451.54
2019-02-19T20:43:55.802Z,98451.26
2019-02-19T20:48:00.703Z,98457.84
2019-02-19T20:52:05.620Z,98460.19
2019-02-19T20:56:10.499Z,98461.17
2019-02-19T21:00:17.112Z,98460.04
2019-02-19T21:04:22.767Z,98459.22
2019-02-19T21:08:27.677Z,98464.50
2019-02-19T21:12:32.559Z,98467.56
2019-02-19T21:16:37.451Z,98464.57
2019-02-19T21:20:42.355Z,98469.35
2019-02-19T21:24:47.256Z,98470.68
2019-02-19T21:28:52.231Z,98472.44
2019-02-19T21:32:57.159Z,98471.60
2019-02-19T21:37:02.058Z,98475.52
2019-02-19T21:41:07.963Z,98481.13
2019-02-19T21:45:15.244Z,98485.48
2019-02-19T21:49:20.145Z,98483.77
2019-02-19T21:53:25.040Z,98483.03
2019-02-19T21:57:29.932Z,98486.09
2019-02-19T22:01:34.835Z,98485.73
2019-02-19T22:05:39.736Z,98487.90
2019-02-19T22:09:44.625Z,98481.85
2019-02-19T22:13:49.522Z,98480.55
2019-02-19T22:17:54.430Z,98482.73
2019-02-19T22:22:03.526Z,98483.58
2019-02-19T22:26:07.561Z,98481.39
2019-02-19T22:30:12.436Z,98480.14
2019-02-19T22:34:17.347Z,98489.66
2019-02-19T22:38:22.238Z,98489.69
2019-02-19T22:42:27.135Z,98494.45
2019-02-19T22:46:32.024Z,98488.00
2019-02-19T22:50:36.926Z,98498.35
2019-02-19T22:54:52.638Z,98491.89
2019-02-19T22:58:58.496Z,98497.95
2019-02-19T23:03:03.465Z,98495.80
2019-02-19T23:07:08.358Z,98494.06
2019-02-19T23:11:13.262Z,98495.82
2019-02-19T23:15:18.157Z,98500.98
2019-02-19T23:19:23.038Z,98493.63
2019-02-19T23:23:27.942Z,98495.34
2019-02-19T23:27:32.834Z,98505.67
2019-02-19T23:31:37.727Z,98502.67
2019-02-19T23:35:48.233Z,98500.09
2019-02-19T23:39:53.124Z,98499.69
2019-02-19T23:43:58.016Z,98505.25
2019-02-19T23:48:02.938Z,98506.13
2019-02-19T23:52:07.831Z,98510.03
2019-02-19T23:56:12.731Z,98508.27
